createdAt,value
2019-04-21T00:00:44.694Z,55.18
2019-04-21T00:03:25.634Z,55.28
2019-04-21T00:06:09.477Z,55.25
2019-04-21T00:08:50.884Z,54.67
2019-04-21T00:11:30.859Z,54.95
2019-04-21T00:13:52.605Z,55.09
2019-04-21T00:16:29.066Z,55.20
2019-04-21T00:19:19.641Z,55.31
2019-04-21T00:21:58.115Z,55.41
2019-04-21T00:24:41.365Z,55.46
2019-04-21T00:27:22.955Z,55.66
2019-04-21T00:29:58.148Z,55.81
2019-04-21T00:32:28.160Z,56.01
2019-04-21T00:35:00.383Z,55.97
2019-04-21T00:37:48.070Z,55.47
2019-04-21T00:40:24.005Z,55.63
2019-04-21T00:43:01.327Z,55.80
2019-04-21T00:45:31.367Z,55.80
2019-04-21T00:48:16.620Z,55.91
2019-04-21T00:51:05.471Z,55.90
2019-04-21T00:53:37.130Z,55.91
2019-04-21T00:56:11.910Z,55.86
2019-04-21T00:58:47.755Z,55.93
2019-04-21T01:01:14.950Z,55.95
2019-04-21T01:03:58.114Z,55.88
2019-04-21T01:06:35.183Z,55.98
2019-04-21T01:09:06.375Z,55.52
2019-04-21T01:11:44.466Z,55.81
2019-04-21T01:14:29.804Z,55.93
2019-04-21T01:16:57.727Z,55.97
2019-04-21T01:19:25.133Z,56.05
2019-04-21T01:21:47.490Z,56.08
2019-04-21T01:24:28.909Z,56.03
2019-04-21T01:27:06.452Z,56.10
2019-04-21T01:29:55.094Z,56.22
2019-04-21T01:32:29.566Z,56.26
2019-04-21T01:35:08.577Z,56.33
2019-04-21T01:37:52.437Z,55.84
2019-04-21T01:40:22.878Z,56.15
2019-04-21T01:43:01.134Z,56.40
2019-04-21T01:45:26.726Z,56.56
2019-04-21T01:48:03.563Z,56.61
2019-04-21T01:50:41.196Z,56.70
2019-04-21T01:53:30.683Z,56.71
2019-04-21T01:56:09.385Z,56.80
2019-04-21T01:58:38.050Z,56.76
2019-04-21T02:01:19.355Z,56.82
2019-04-21T02:03:55.874Z,56.81
2019-04-21T02:06:33.457Z,56.77
2019-04-21T02:09:10.120Z,56.97
2019-04-21T02:11:52.050Z,56.94
2019-04-21T02:14:31.772Z,56.23
2019-04-21T02:16:59.595Z,56.76
2019-04-21T02:19:31.238Z,56.90
2019-04-21T02:22:04.911Z,56.90
2019-04-21T02:25:08.281Z,56.98
2019-04-21T02:27:26.514Z,57.03
2019-04-21T02:30:00.052Z,57.00
2019-04-21T02:32:53.815Z,56.92
2019-04-21T02:35:30.295Z,56.90
2019-04-21T02:38:03.786Z,56.92
2019-04-21T02:40:38.935Z,56.83
2019-04-21T02:43:11.341Z,56.82
2019-04-21T02:45:53.698Z,56.38
2019-04-21T02:50:57.713Z,56.67
2019-04-21T02:54:07.376Z,56.61
2019-04-21T02:56:17.995Z,56.65
2019-04-21T03:01:50.332Z,56.57
2019-04-21T03:04:43.096Z,55.33
2019-04-21T03:07:21.610Z,54.49
2019-04-21T03:09:59.755Z,54.00
2019-04-21T03:12:35.533Z,53.62
2019-04-21T03:15:25.522Z,53.42
2019-04-21T03:18:38.045Z,53.29
2019-04-21T03:23:07.697Z,53.05
2019-04-21T03:28:14.173Z,52.85
2019-04-21T03:41:21.457Z,52.51
2019-04-21T03:43:50.160Z,52.41
2019-04-21T03:49:11.857Z,52.22
2019-04-21T03:54:15.530Z,52.04
2019-04-21T03:59:25.013Z,52.02
2019-04-21T04:02:47.172Z,52.04
2019-04-21T04:05:20.006Z,52.07
2019-04-21T04:08:08.735Z,51.96
2019-04-21T04:10:34.840Z,51.99
2019-04-21T04:13:14.121Z,51.91
2019-04-21T04:18:44.421Z,51.86
2019-04-21T04:21:05.794Z,51.82
2019-04-21T04:24:02.399Z,51.77
2019-04-21T04:26:19.371Z,51.71
2019-04-21T04:31:35.486Z,51.66
2019-04-21T04:34:04.768Z,51.56
2019-04-21T04:39:43.154Z,51.51
2019-04-21T04:42:35.054Z,51.67
2019-04-21T04:47:37.110Z,51.49
2019-04-21T04:50:09.930Z,51.34
2019-04-21T04:52:48.982Z,51.40
2019-04-21T04:55:26.189Z,51.47
2019-04-21T05:00:43.422Z,50.54
2019-04-21T05:06:46.170Z,51.30
2019-04-21T05:09:21.558Z,51.13
2019-04-21T05:11:48.752Z,50.11
2019-04-21T05:14:21.803Z,49.82
2019-04-21T05:17:02.306Z,49.68
2019-04-21T05:19:38.160Z,49.59
2019-04-21T05:22:11.054Z,49.81
2019-04-21T05:24:36.107Z,49.27
2019-04-21T05:27:29.415Z,49.30
2019-04-21T05:30:17.375Z,49.36
2019-04-21T05:33:05.606Z,49.37
2019-04-21T05:36:04.106Z,49.52
2019-04-21T05:38:53.469Z,49.58
2019-04-21T05:41:20.657Z,50.97
2019-04-21T05:44:12.827Z,51.04
2019-04-21T05:46:49.508Z,50.63
2019-04-21T05:49:42.084Z,50.31
2019-04-21T05:52:08.101Z,50.04
2019-04-21T05:54:57.437Z,49.86
2019-04-21T05:57:31.846Z,49.64
2019-04-21T06:00:08.854Z,49.58
2019-04-21T06:02:43.788Z,49.52
2019-04-21T06:08:03.758Z,50.42
2019-04-21T06:10:42.273Z,49.92
2019-04-21T06:13:24.417Z,49.72
2019-04-21T06:18:35.355Z,49.93
2019-04-21T06:21:07.206Z,50.26
2019-04-21T06:23:36.779Z,50.73
2019-04-21T06:26:27.996Z,50.82
2019-04-21T06:28:50.404Z,50.80
2019-04-21T06:31:57.398Z,50.52
2019-04-21T06:34:06.757Z,50.48
2019-04-21T06:36:52.702Z,50.46
2019-04-21T06:39:24.154Z,50.40
2019-04-21T06:41:53.110Z,50.34
2019-04-21T06:44:33.064Z,50.35
2019-04-21T06:47:23.230Z,50.09
2019-04-21T06:49:44.392Z,49.92
2019-04-21T06:52:34.791Z,49.64
2019-04-21T06:55:03.145Z,49.53
2019-04-21T06:57:34.775Z,49.73
2019-04-21T07:00:07.407Z,49.82
2019-04-21T07:03:08.349Z,50.15
2019-04-21T07:05:26.336Z,49.94
2019-04-21T07:08:14.921Z,52.51
2019-04-21T07:10:31.819Z,51.95
2019-04-21T07:13:07.933Z,52.04
2019-04-21T07:16:02.838Z,51.80
2019-04-21T07:18:31.431Z,51.58
2019-04-21T07:21:00.054Z,51.48
2019-04-21T07:23:39.971Z,51.03
2019-04-21T07:26:14.763Z,50.95
2019-04-21T07:28:49.882Z,50.98
2019-04-21T07:31:24.962Z,51.01
2019-04-21T07:34:01.577Z,50.85
2019-04-21T07:39:06.219Z,50.69
2019-04-21T07:41:44.050Z,50.49
2019-04-21T07:44:17.027Z,50.52
2019-04-21T07:46:50.519Z,50.46
2019-04-21T07:49:57.371Z,50.23
2019-04-21T07:52:53.207Z,50.01
2019-04-21T07:57:57.196Z,49.36
2019-04-21T08:00:45.083Z,49.10
2019-04-21T08:03:14.137Z,48.94
2019-04-21T08:05:53.723Z,49.00
2019-04-21T08:08:26.566Z,48.93
2019-04-21T08:11:03.710Z,48.82
2019-04-21T08:13:42.975Z,48.52
2019-04-21T08:16:17.253Z,48.58
2019-04-21T08:18:52.421Z,48.51
2019-04-21T08:21:28.291Z,48.52
2019-04-21T08:23:59.682Z,48.42
2019-04-21T08:26:45.200Z,48.29
2019-04-21T08:29:25.839Z,48.19
2019-04-21T08:32:08.084Z,48.14
2019-04-21T08:37:08.902Z,48.04
2019-04-21T08:39:51.798Z,48.40
2019-04-21T08:42:21.608Z,48.47
2019-04-21T08:44:52.445Z,48.51
2019-04-21T08:47:25.650Z,48.46
2019-04-21T08:50:02.157Z,48.45
2019-04-21T08:52:44.479Z,48.57
2019-04-21T08:55:25.362Z,48.57
2019-04-21T08:58:25.668Z,48.12
2019-04-21T09:01:01.801Z,48.32
2019-04-21T09:03:51.956Z,48.38
2019-04-21T09:06:50.045Z,48.29
2019-04-21T09:09:03.660Z,48.26
2019-04-21T09:11:40.440Z,48.26
2019-04-21T09:14:20.766Z,48.22
2019-04-21T09:16:52.837Z,48.15
2019-04-21T09:19:38.626Z,48.09
2019-04-21T09:22:05.745Z,48.08
2019-04-21T09:24:42.708Z,47.92
2019-04-21T09:27:15.295Z,47.95
2019-04-21T09:29:40.623Z,47.89
2019-04-21T09:32:16.621Z,47.80
2019-04-21T09:34:48.934Z,47.78
2019-04-21T09:37:32.985Z,47.67
2019-04-21T09:40:00.908Z,47.69
2019-04-21T09:42:44.365Z,47.60
2019-04-21T09:45:14.291Z,47.50
2019-04-21T09:47:59.064Z,47.50
2019-04-21T09:50:24.646Z,47.53
2019-04-21T09:53:10.457Z,47.42
2019-04-21T09:55:45.246Z,47.49
2019-04-21T09:58:23.219Z,47.16
2019-04-21T10:01:01.478Z,47.03
2019-04-21T10:03:24.227Z,47.10
2019-04-21T10:05:58.759Z,47.38
2019-04-21T10:08:34.181Z,47.75
2019-04-21T10:11:09.865Z,48.00
2019-04-21T10:13:44.330Z,48.16
2019-04-21T10:16:38.272Z,48.24
2019-04-21T10:19:13.327Z,48.22
2019-04-21T10:21:50.148Z,48.41
2019-04-21T10:24:24.569Z,48.69
2019-04-21T10:26:59.062Z,47.58
2019-04-21T10:29:35.789Z,46.38
2019-04-21T10:32:09.360Z,45.25
2019-04-21T10:34:43.710Z,44.29
2019-04-21T10:37:18.800Z,43.68
2019-04-21T10:39:53.859Z,43.23
2019-04-21T10:42:29.108Z,43.35
2019-04-21T10:45:03.605Z,44.28
2019-04-21T10:47:38.859Z,44.95
2019-04-21T10:50:13.488Z,45.75
2019-04-21T10:53:09.292Z,46.79
2019-04-21T10:55:56.690Z,48.43
2019-04-21T10:58:38.382Z,49.78
2019-04-21T11:01:16.675Z,50.72
2019-04-21T11:04:29.019Z,52.48
2019-04-21T11:07:06.673Z,53.89
2019-04-21T11:09:34.155Z,53.07
2019-04-21T11:12:08.540Z,51.78
2019-04-21T11:14:43.092Z,50.16
2019-04-21T11:17:18.217Z,49.16
2019-04-21T11:19:54.861Z,47.91
2019-04-21T11:22:31.026Z,47.06
2019-04-21T11:25:07.004Z,46.17
2019-04-21T11:27:42.923Z,45.41
2019-04-21T11:30:17.807Z,44.83
2019-04-21T11:32:53.116Z,44.32
2019-04-21T11:35:27.780Z,44.16
2019-04-21T11:38:14.493Z,43.95
2019-04-21T11:40:45.541Z,43.90
2019-04-21T11:43:19.978Z,43.58
2019-04-21T11:45:54.754Z,43.54
2019-04-21T11:48:30.532Z,43.38
2019-04-21T11:51:04.925Z,43.40
2019-04-21T11:53:39.195Z,43.11
2019-04-21T11:56:14.625Z,43.02
2019-04-21T11:58:49.955Z,42.76
2019-04-21T12:01:25.685Z,42.80
2019-04-21T12:04:00.023Z,42.80
2019-04-21T12:06:40.935Z,42.65
2019-04-21T12:09:11.771Z,42.51
2019-04-21T12:11:47.412Z,42.35
2019-04-21T12:14:21.798Z,42.19
2019-04-21T12:16:57.186Z,42.02
2019-04-21T12:19:32.589Z,42.19
2019-04-21T12:22:17.560Z,42.20
2019-04-21T12:24:44.897Z,42.27
2019-04-21T12:27:20.355Z,42.07
2019-04-21T12:29:55.512Z,42.08
2019-04-21T12:32:40.182Z,42.00
2019-04-21T12:35:15.756Z,42.00
2019-04-21T12:37:51.073Z,41.95
2019-04-21T12:40:26.411Z,41.93
2019-04-21T12:43:00.944Z,42.24
2019-04-21T12:45:35.904Z,42.49
2019-04-21T12:48:10.557Z,42.70
2019-04-21T12:50:45.797Z,42.68
2019-04-21T12:53:21.435Z,42.77
2019-04-21T12:55:55.797Z,42.81
2019-04-21T12:58:31.127Z,43.01
2019-04-21T13:01:05.366Z,42.98
2019-04-21T13:03:39.833Z,43.15
2019-04-21T13:06:14.161Z,43.25
2019-04-21T13:08:56.863Z,43.32
2019-04-21T13:11:25.514Z,43.35
2019-04-21T13:13:59.888Z,42.35
2019-04-21T13:16:35.557Z,43.87
2019-04-21T13:19:09.608Z,44.92
2019-04-21T13:21:43.776Z,44.37
2019-04-21T13:24:17.918Z,44.17
2019-04-21T13:26:58.097Z,43.48
2019-04-21T13:29:30.184Z,43.27
2019-04-21T13:32:05.491Z,42.76
2019-04-21T13:34:42.095Z,42.76
2019-04-21T13:37:17.332Z,42.83
2019-04-21T13:40:34.157Z,43.21
2019-04-21T13:42:58.590Z,43.29
2019-04-21T13:45:32.167Z,43.42
2019-04-21T13:48:06.622Z,43.90
2019-04-21T13:50:41.433Z,44.43
2019-04-21T13:53:16.639Z,45.09
2019-04-21T13:55:52.618Z,45.29
2019-04-21T13:58:28.168Z,45.43
2019-04-21T14:01:03.541Z,45.49
2019-04-21T14:03:37.913Z,46.92
2019-04-21T14:06:12.166Z,47.57
2019-04-21T14:08:54.720Z,47.71
2019-04-21T14:11:29.263Z,47.77
2019-04-21T14:14:03.252Z,47.67
2019-04-21T14:16:38.182Z,47.47
2019-04-21T14:19:13.139Z,47.51
2019-04-21T14:21:49.880Z,47.44
2019-04-21T14:24:22.968Z,47.50
2019-04-21T14:26:58.324Z,47.46
2019-04-21T14:29:33.472Z,47.45
2019-04-21T14:32:08.374Z,47.48
2019-04-21T14:34:44.095Z,47.48
2019-04-21T14:37:20.459Z,47.53
2019-04-21T14:40:01.877Z,47.52
2019-04-21T14:42:32.012Z,47.60
2019-04-21T14:45:07.329Z,47.62
2019-04-21T14:48:04.995Z,47.66
2019-04-21T14:51:11.218Z,47.73
2019-04-21T14:54:02.010Z,47.81
2019-04-21T14:56:37.481Z,47.84
2019-04-21T14:59:12.948Z,47.86
2019-04-21T15:01:47.208Z,47.90
2019-04-21T15:04:22.379Z,47.95
2019-04-21T15:06:57.400Z,47.97
2019-04-21T15:09:32.309Z,48.02
2019-04-21T15:12:08.005Z,48.06
2019-04-21T15:14:42.553Z,48.09
2019-04-21T15:17:19.530Z,48.18
2019-04-21T15:20:00.721Z,48.24
2019-04-21T15:22:30.339Z,48.36
2019-04-21T15:25:05.860Z,48.68
2019-04-21T15:27:41.137Z,48.44
2019-04-21T15:30:16.465Z,48.43
2019-04-21T15:32:50.918Z,48.46
2019-04-21T15:35:26.962Z,48.41
2019-04-21T15:38:02.069Z,48.39
2019-04-21T15:40:44.636Z,48.34
2019-04-21T15:43:12.645Z,48.32
2019-04-21T15:45:46.964Z,48.31
2019-04-21T15:48:22.326Z,48.30
2019-04-21T15:50:58.871Z,48.28
2019-04-21T15:53:34.200Z,48.24
2019-04-21T15:56:28.872Z,48.25
2019-04-21T15:59:30.587Z,48.24
2019-04-21T16:02:22.361Z,48.20
2019-04-21T16:04:56.831Z,48.19
2019-04-21T16:07:31.892Z,48.21
2019-04-21T16:10:09.887Z,48.20
2019-04-21T16:12:43.638Z,48.26
2019-04-21T16:15:18.850Z,48.29
2019-04-21T16:17:53.358Z,48.26
2019-04-21T16:20:28.171Z,48.30
2019-04-21T16:23:02.428Z,48.26
2019-04-21T16:25:36.997Z,48.26
2019-04-21T16:28:11.483Z,48.23
2019-04-21T16:30:46.580Z,48.26
2019-04-21T16:33:21.090Z,48.29
2019-04-21T16:35:56.008Z,48.28
2019-04-21T16:38:31.424Z,48.28
2019-04-21T16:41:09.197Z,48.36
2019-04-21T16:43:43.013Z,48.27
2019-04-21T16:46:17.877Z,48.31
2019-04-21T16:48:53.478Z,48.30
2019-04-21T16:51:28.471Z,48.34
2019-04-21T16:54:08.330Z,48.36
2019-04-21T16:56:52.118Z,48.45
2019-04-21T16:59:32.566Z,48.53
2019-04-21T17:02:07.115Z,48.53
2019-04-21T17:04:42.511Z,48.86
2019-04-21T17:07:17.929Z,49.48
2019-04-21T17:09:52.718Z,48.11
2019-04-21T17:12:28.751Z,45.87
2019-04-21T17:15:18.941Z,44.60
2019-04-21T17:18:00.214Z,43.82
2019-04-21T17:20:29.944Z,43.27
2019-04-21T17:22:51.506Z,42.92
2019-04-21T17:25:27.833Z,43.67
2019-04-21T17:28:01.944Z,44.41
2019-04-21T17:30:36.701Z,45.26
2019-04-21T17:33:16.041Z,45.75
2019-04-21T17:35:47.327Z,46.53
2019-04-21T17:38:21.885Z,47.68
2019-04-21T17:41:11.052Z,47.31
2019-04-21T17:43:32.265Z,47.81
2019-04-21T17:46:06.916Z,47.14
2019-04-21T17:48:42.871Z,46.88
2019-04-21T17:51:25.822Z,46.75
2019-04-21T17:54:13.652Z,46.89
2019-04-21T17:57:05.550Z,46.87
2019-04-21T17:59:50.881Z,46.89
2019-04-21T18:02:11.040Z,47.07
2019-04-21T18:04:49.261Z,47.31
2019-04-21T18:07:31.543Z,47.45
2019-04-21T18:10:15.939Z,47.75
2019-04-21T18:12:36.160Z,48.20
2019-04-21T18:15:17.583Z,48.46
2019-04-21T18:17:34.551Z,48.55
2019-04-21T18:20:10.031Z,48.78
2019-04-21T18:23:15.356Z,49.43
2019-04-21T18:25:53.949Z,49.78
2019-04-21T18:28:20.775Z,51.04
2019-04-21T18:31:16.425Z,50.37
2019-04-21T18:34:13.876Z,49.57
2019-04-21T18:36:52.142Z,49.72
2019-04-21T18:39:53.619Z,49.77
2019-04-21T18:42:42.134Z,50.40
2019-04-21T18:45:48.027Z,50.94
2019-04-21T18:48:41.208Z,51.18
2019-04-21T18:51:32.722Z,49.66
2019-04-21T18:54:31.349Z,48.29
2019-04-21T18:56:53.618Z,47.79
2019-04-21T18:59:27.069Z,47.66
2019-04-21T19:02:02.447Z,47.27
2019-04-21T19:04:35.190Z,47.83
2019-04-21T19:07:19.863Z,48.74
2019-04-21T19:10:20.510Z,49.97
2019-04-21T19:13:05.986Z,50.50
2019-04-21T19:15:17.847Z,50.78
2019-04-21T19:18:16.999Z,50.84
2019-04-21T19:20:31.105Z,50.80
2019-04-21T19:23:00.310Z,50.60
2019-04-21T19:25:45.130Z,50.29
2019-04-21T19:28:16.282Z,50.73
2019-04-21T19:30:57.507Z,52.27
2019-04-21T19:33:27.026Z,52.88
2019-04-21T19:35:47.486Z,53.16
2019-04-21T19:38:31.719Z,53.64
2019-04-21T19:41:15.608Z,53.99
2019-04-21T19:43:53.670Z,54.22
2019-04-21T19:46:30.649Z,54.59
2019-04-21T19:49:13.470Z,54.25
2019-04-21T19:51:37.772Z,51.40
2019-04-21T19:54:12.627Z,50.86
2019-04-21T19:56:38.498Z,50.68
2019-04-21T19:59:18.572Z,50.80
2019-04-21T20:01:49.958Z,51.00
2019-04-21T20:04:34.387Z,51.33
2019-04-21T20:07:17.396Z,51.81
2019-04-21T20:09:55.899Z,52.25
2019-04-21T20:12:36.585Z,52.39
2019-04-21T20:15:23.248Z,53.16
2019-04-21T20:17:42.441Z,53.25
2019-04-21T20:20:03.746Z,55.00
2019-04-21T20:22:42.278Z,54.61
2019-04-21T20:25:19.061Z,53.98
2019-04-21T20:27:59.069Z,53.07
2019-04-21T20:30:42.474Z,53.49
2019-04-21T20:33:41.629Z,53.40
2019-04-21T20:38:28.870Z,53.34
2019-04-21T20:40:59.794Z,53.29
2019-04-21T20:43:47.156Z,53.41
2019-04-21T20:46:15.619Z,53.23
2019-04-21T20:48:52.320Z,53.14
2019-04-21T20:51:36.243Z,53.05
2019-04-21T20:54:07.449Z,52.95
2019-04-21T20:56:42.020Z,52.62
2019-04-21T20:59:19.418Z,52.68
2019-04-21T21:01:57.911Z,53.30
2019-04-21T21:04:27.987Z,53.65
2019-04-21T21:07:25.556Z,54.23
2019-04-21T21:09:54.506Z,55.52
2019-04-21T21:12:34.314Z,55.06
2019-04-21T21:14:54.038Z,54.63
2019-04-21T21:20:16.362Z,54.13
2019-04-21T21:22:43.927Z,53.99
2019-04-21T21:25:36.626Z,53.99
2019-04-21T21:27:55.256Z,53.93
2019-04-21T21:30:34.809Z,54.63
2019-04-21T21:33:17.149Z,54.90
2019-04-21T21:35:41.507Z,56.08
2019-04-21T21:38:28.219Z,56.21
2019-04-21T21:40:57.370Z,55.38
2019-04-21T21:43:24.798Z,55.14
2019-04-21T21:46:02.650Z,54.92
2019-04-21T21:48:48.945Z,54.74
2019-04-21T21:51:19.188Z,54.52
2019-04-21T21:53:45.969Z,54.37
2019-04-21T21:56:20.607Z,54.55
2019-04-21T21:58:56.965Z,55.47
2019-04-21T22:01:38.009Z,56.48
2019-04-21T22:04:13.295Z,57.38
2019-04-21T22:06:50.692Z,56.56
2019-04-21T22:09:19.868Z,55.86
2019-04-21T22:11:57.841Z,55.58
2019-04-21T22:14:37.189Z,55.39
2019-04-21T22:17:21.417Z,55.79
2019-04-21T22:20:05.320Z,56.02
2019-04-21T22:22:32.469Z,56.16
2019-04-21T22:25:04.539Z,57.29
2019-04-21T22:27:30.798Z,57.27
2019-04-21T22:30:09.002Z,56.98
2019-04-21T22:32:50.276Z,57.24
2019-04-21T22:35:27.307Z,57.66
2019-04-21T22:38:10.192Z,57.94
2019-04-21T22:40:46.616Z,58.11
2019-04-21T22:43:19.814Z,58.30
2019-04-21T22:45:45.229Z,58.58
2019-04-21T22:48:22.783Z,59.49
2019-04-21T22:50:56.207Z,58.63
2019-04-21T22:53:37.440Z,57.99
2019-04-21T22:56:14.939Z,57.07
2019-04-21T22:58:44.455Z,56.94
2019-04-21T23:01:26.751Z,56.64
2019-04-21T23:03:59.242Z,56.28
2019-04-21T23:06:34.360Z,55.88
2019-04-21T23:09:11.059Z,55.55
2019-04-21T23:11:49.187Z,55.32
2019-04-21T23:14:21.570Z,54.98
2019-04-21T23:17:14.935Z,54.83
2019-04-21T23:19:46.043Z,54.64
2019-04-21T23:22:31.276Z,55.63
2019-04-21T23:25:09.441Z,56.45
2019-04-21T23:27:38.744Z,55.78
2019-04-21T23:30:25.833Z,55.78
2019-04-21T23:32:47.880Z,55.34
2019-04-21T23:35:19.637Z,55.01
2019-04-21T23:37:55.694Z,54.77
2019-04-21T23:40:27.848Z,54.56
2019-04-21T23:43:09.699Z,54.42
2019-04-21T23:45:40.900Z,56.01
2019-04-21T23:48:27.137Z,55.94
2019-04-21T23:50:55.089Z,55.76
2019-04-21T23:53:23.981Z,55.49
2019-04-21T23:55:59.212Z,54.93
2019-04-21T23:58:36.250Z,54.69
